sensor_id;sensor_type;location;lat;lon;timestamp;temperature;humidity
66343;DHT22;53144;51.524;5.080;2022-08-01T00:02:26;19.51;94.06
66343;DHT22;53144;51.524;5.080;2022-08-01T00:04:54;19.46;94.33
66343;DHT22;53144;51.524;5.080;2022-08-01T00:07:19;19.46;94.72
66343;DHT22;53144;51.524;5.080;2022-08-01T00:09:44;19.47;94.62
66343;DHT22;53144;51.524;5.080;2022-08-01T00:12:10;19.57;94.24
66343;DHT22;53144;51.524;5.080;2022-08-01T00:14:35;19.56;94.09
66343;DHT22;53144;51.524;5.080;2022-08-01T00:17:00;19.47;94.45
66343;DHT22;53144;51.524;5.080;2022-08-01T00:19:26;19.49;94.53
66343;DHT22;53144;51.524;5.080;2022-08-01T00:21:51;19.57;94.49
66343;DHT22;53144;51.524;5.080;2022-08-01T00:24:17;19.57;94.42
66343;DHT22;53144;51.524;5.080;2022-08-01T00:26:42;19.53;94.76
66343;DHT22;53144;51.524;5.080;2022-08-01T00:29:07;19.49;94.95
66343;DHT22;53144;51.524;5.080;2022-08-01T00:31:33;19.43;95.46
66343;DHT22;53144;51.524;5.080;2022-08-01T00:33:58;19.34;95.92
66343;DHT22;53144;51.524;5.080;2022-08-01T00:36:23;19.24;96.09
66343;DHT22;53144;51.524;5.080;2022-08-01T00:38:49;19.27;96.59
66343;DHT22;53144;51.524;5.080;2022-08-01T00:41:14;19.24;96.41
66343;DHT22;53144;51.524;5.080;2022-08-01T00:43:40;19.26;96.41
66343;DHT22;53144;51.524;5.080;2022-08-01T00:46:05;19.23;96.54
66343;DHT22;53144;51.524;5.080;2022-08-01T00:48:30;19.15;96.67
66343;DHT22;53144;51.524;5.080;2022-08-01T00:50:56;19.10;96.70
66343;DHT22;53144;51.524;5.080;2022-08-01T00:53:21;19.15;96.88
66343;DHT22;53144;51.524;5.080;2022-08-01T00:55:47;19.12;96.60
66343;DHT22;53144;51.524;5.080;2022-08-01T00:58:13;19.03;96.32
66343;DHT22;53144;51.524;5.080;2022-08-01T01:00:39;19.00;96.07
66343;DHT22;53144;51.524;5.080;2022-08-01T01:03:04;19.00;96.16
66343;DHT22;53144;51.524;5.080;2022-08-01T01:05:34;19.02;95.89
66343;DHT22;53144;51.524;5.080;2022-08-01T01:08:08;18.98;95.53
66343;DHT22;53144;51.524;5.080;2022-08-01T01:10:43;18.98;95.63
66343;DHT22;53144;51.524;5.080;2022-08-01T01:13:26;18.99;95.70
66343;DHT22;53144;51.524;5.080;2022-08-01T01:16:03;18.94;95.58
66343;DHT22;53144;51.524;5.080;2022-08-01T01:18:37;18.92;95.52
66343;DHT22;53144;51.524;5.080;2022-08-01T01:26:52;18.88;95.12
66343;DHT22;53144;51.524;5.080;2022-08-01T01:29:38;18.98;96.17
66343;DHT22;53144;51.524;5.080;2022-08-01T01:32:22;18.96;95.81
66343;DHT22;53144;51.524;5.080;2022-08-01T01:34:50;18.99;95.89
66343;DHT22;53144;51.524;5.080;2022-08-01T01:37:21;18.92;95.57
66343;DHT22;53144;51.524;5.080;2022-08-01T01:39:49;18.85;95.55
66343;DHT22;53144;51.524;5.080;2022-08-01T01:42:16;18.94;95.66
66343;DHT22;53144;51.524;5.080;2022-08-01T01:44:43;18.95;95.58
66343;DHT22;53144;51.524;5.080;2022-08-01T01:47:11;19.00;95.64
66343;DHT22;53144;51.524;5.080;2022-08-01T01:49:40;18.98;95.59
66343;DHT22;53144;51.524;5.080;2022-08-01T01:52:07;18.95;95.48
66343;DHT22;53144;51.524;5.080;2022-08-01T01:54:39;18.98;96.00
66343;DHT22;53144;51.524;5.080;2022-08-01T01:57:06;18.96;96.66
66343;DHT22;53144;51.524;5.080;2022-08-01T01:59:35;18.92;96.82
66343;DHT22;53144;51.524;5.080;2022-08-01T02:02:05;18.88;96.96
66343;DHT22;53144;51.524;5.080;2022-08-01T02:04:32;18.88;97.17
66343;DHT22;53144;51.524;5.080;2022-08-01T02:07:01;18.91;96.86
66343;DHT22;53144;51.524;5.080;2022-08-01T02:09:28;18.85;96.32
66343;DHT22;53144;51.524;5.080;2022-08-01T02:11:55;18.89;96.24
66343;DHT22;53144;51.524;5.080;2022-08-01T02:14:22;18.88;96.35
66343;DHT22;53144;51.524;5.080;2022-08-01T02:16:49;18.87;96.03
66343;DHT22;53144;51.524;5.080;2022-08-01T02:19:17;18.92;95.79
66343;DHT22;53144;51.524;5.080;2022-08-01T02:21:51;18.94;95.77
66343;DHT22;53144;51.524;5.080;2022-08-01T02:27:05;18.92;95.84
66343;DHT22;53144;51.524;5.080;2022-08-01T02:29:43;18.87;95.51
66343;DHT22;53144;51.524;5.080;2022-08-01T02:32:22;18.87;96.01
66343;DHT22;53144;51.524;5.080;2022-08-01T02:34:51;18.87;96.11
66343;DHT22;53144;51.524;5.080;2022-08-01T02:37:18;18.82;95.67
66343;DHT22;53144;51.524;5.080;2022-08-01T02:39:47;18.89;96.26
66343;DHT22;53144;51.524;5.080;2022-08-01T02:42:15;18.82;96.23
66343;DHT22;53144;51.524;5.080;2022-08-01T02:44:44;18.82;95.77
66343;DHT22;53144;51.524;5.080;2022-08-01T02:47:11;18.82;96.00
66343;DHT22;53144;51.524;5.080;2022-08-01T02:49:42;18.79;95.75
66343;DHT22;53144;51.524;5.080;2022-08-01T02:52:13;18.84;96.00
66343;DHT22;53144;51.524;5.080;2022-08-01T02:54:40;18.79;96.31
66343;DHT22;53144;51.524;5.080;2022-08-01T02:57:08;18.73;95.71
66343;DHT22;53144;51.524;5.080;2022-08-01T02:59:36;18.72;96.20
66343;DHT22;53144;51.524;5.080;2022-08-01T03:02:03;18.78;96.31
66343;DHT22;53144;51.524;5.080;2022-08-01T03:04:35;18.79;96.22
66343;DHT22;53144;51.524;5.080;2022-08-01T03:07:03;18.73;96.25
66343;DHT22;53144;51.524;5.080;2022-08-01T03:09:32;18.78;96.17
66343;DHT22;53144;51.524;5.080;2022-08-01T03:12:01;18.88;95.94
66343;DHT22;53144;51.524;5.080;2022-08-01T03:14:28;18.91;95.92
66343;DHT22;53144;51.524;5.080;2022-08-01T03:16:55;18.85;95.80
66343;DHT22;53144;51.524;5.080;2022-08-01T03:19:24;18.87;96.21
66343;DHT22;53144;51.524;5.080;2022-08-01T03:21:50;18.85;96.57
66343;DHT22;53144;51.524;5.080;2022-08-01T03:24:18;18.84;96.49
66343;DHT22;53144;51.524;5.080;2022-08-01T03:26:44;18.84;96.66
66343;DHT22;53144;51.524;5.080;2022-08-01T03:29:16;18.75;96.45
66343;DHT22;53144;51.524;5.080;2022-08-01T03:31:43;18.78;96.83
66343;DHT22;53144;51.524;5.080;2022-08-01T03:34:10;18.78;96.56
66343;DHT22;53144;51.524;5.080;2022-08-01T03:36:49;18.75;96.44
66343;DHT22;53144;51.524;5.080;2022-08-01T03:39:18;18.78;96.64
66343;DHT22;53144;51.524;5.080;2022-08-01T03:41:51;18.72;96.97
66343;DHT22;53144;51.524;5.080;2022-08-01T03:44:20;18.62;96.82
66343;DHT22;53144;51.524;5.080;2022-08-01T03:46:51;18.61;96.89
66343;DHT22;53144;51.524;5.080;2022-08-01T03:49:25;18.60;96.87
66343;DHT22;53144;51.524;5.080;2022-08-01T03:51:52;18.55;97.04
66343;DHT22;53144;51.524;5.080;2022-08-01T03:54:21;18.54;97.01
66343;DHT22;53144;51.524;5.080;2022-08-01T03:56:49;18.51;97.10
66343;DHT22;53144;51.524;5.080;2022-08-01T03:59:17;18.44;97.06
66343;DHT22;53144;51.524;5.080;2022-08-01T04:01:44;18.40;97.19
66343;DHT22;53144;51.524;5.080;2022-08-01T04:04:10;18.40;97.42
66343;DHT22;53144;51.524;5.080;2022-08-01T04:06:41;18.37;97.31
66343;DHT22;53144;51.524;5.080;2022-08-01T04:09:10;18.41;97.40
66343;DHT22;53144;51.524;5.080;2022-08-01T04:11:35;18.43;97.14
66343;DHT22;53144;51.524;5.080;2022-08-01T04:14:01;18.43;97.18
66343;DHT22;53144;51.524;5.080;2022-08-01T04:16:26;18.48;97.17
66343;DHT22;53144;51.524;5.080;2022-08-01T04:18:52;18.50;97.05
66343;DHT22;53144;51.524;5.080;2022-08-01T04:21:24;18.55;96.90
66343;DHT22;53144;51.524;5.080;2022-08-01T04:23:54;18.57;96.60
66343;DHT22;53144;51.524;5.080;2022-08-01T04:26:21;18.51;96.71
66343;DHT22;53144;51.524;5.080;2022-08-01T04:28:49;18.48;96.84
66343;DHT22;53144;51.524;5.080;2022-08-01T04:31:17;18.58;96.49
66343;DHT22;53144;51.524;5.080;2022-08-01T04:33:48;18.51;96.61
66343;DHT22;53144;51.524;5.080;2022-08-01T04:36:16;18.57;96.52
66343;DHT22;53144;51.524;5.080;2022-08-01T04:38:45;18.47;96.84
66343;DHT22;53144;51.524;5.080;2022-08-01T04:41:12;18.47;96.68
66343;DHT22;53144;51.524;5.080;2022-08-01T04:43:38;18.47;96.58
66343;DHT22;53144;51.524;5.080;2022-08-01T04:46:05;18.55;96.62
66343;DHT22;53144;51.524;5.080;2022-08-01T04:48:33;18.60;96.55
66343;DHT22;53144;51.524;5.080;2022-08-01T04:51:00;18.65;96.19
66343;DHT22;53144;51.524;5.080;2022-08-01T04:53:25;18.62;96.15
66343;DHT22;53144;51.524;5.080;2022-08-01T04:55:51;18.64;95.99
66343;DHT22;53144;51.524;5.080;2022-08-01T04:58:17;18.69;96.09
66343;DHT22;53144;51.524;5.080;2022-08-01T05:00:43;18.68;95.86
66343;DHT22;53144;51.524;5.080;2022-08-01T05:03:08;18.62;95.96
66343;DHT22;53144;51.524;5.080;2022-08-01T05:05:34;18.62;96.03
66343;DHT22;53144;51.524;5.080;2022-08-01T05:08:00;18.64;95.93
66343;DHT22;53144;51.524;5.080;2022-08-01T05:10:25;18.67;96.04
66343;DHT22;53144;51.524;5.080;2022-08-01T05:12:51;18.73;95.95
66343;DHT22;53144;51.524;5.080;2022-08-01T05:15:16;18.78;95.94
66343;DHT22;53144;51.524;5.080;2022-08-01T05:17:42;18.79;95.49
66343;DHT22;53144;51.524;5.080;2022-08-01T05:20:07;18.89;95.80
66343;DHT22;53144;51.524;5.080;2022-08-01T05:22:33;18.92;95.53
66343;DHT22;53144;51.524;5.080;2022-08-01T05:24:59;18.91;95.25
66343;DHT22;53144;51.524;5.080;2022-08-01T05:27:25;18.88;94.99
66343;DHT22;53144;51.524;5.080;2022-08-01T05:29:50;18.85;94.69
66343;DHT22;53144;51.524;5.080;2022-08-01T05:32:16;18.92;95.19
66343;DHT22;53144;51.524;5.080;2022-08-01T05:34:41;18.81;94.37
66343;DHT22;53144;51.524;5.080;2022-08-01T05:37:07;18.72;94.95
66343;DHT22;53144;51.524;5.080;2022-08-01T05:39:32;18.68;95.23
66343;DHT22;53144;51.524;5.080;2022-08-01T05:41:58;18.78;95.14
66343;DHT22;53144;51.524;5.080;2022-08-01T05:44:23;18.79;95.07
66343;DHT22;53144;51.524;5.080;2022-08-01T05:46:48;18.82;94.51
66343;DHT22;53144;51.524;5.080;2022-08-01T05:49:14;18.88;94.86
66343;DHT22;53144;51.524;5.080;2022-08-01T05:51:39;18.89;94.79
66343;DHT22;53144;51.524;5.080;2022-08-01T05:54:05;18.92;94.64
66343;DHT22;53144;51.524;5.080;2022-08-01T05:56:30;18.81;94.70
66343;DHT22;53144;51.524;5.080;2022-08-01T05:58:56;18.84;95.34
66343;DHT22;53144;51.524;5.080;2022-08-01T06:01:21;18.94;95.02
66343;DHT22;53144;51.524;5.080;2022-08-01T06:03:46;18.71;94.29
66343;DHT22;53144;51.524;5.080;2022-08-01T06:06:12;18.75;94.73
66343;DHT22;53144;51.524;5.080;2022-08-01T06:08:39;18.76;95.31
66343;DHT22;53144;51.524;5.080;2022-08-01T06:11:05;18.91;94.96
66343;DHT22;53144;51.524;5.080;2022-08-01T06:13:31;18.92;94.45
66343;DHT22;53144;51.524;5.080;2022-08-01T06:15:56;18.76;94.37
66343;DHT22;53144;51.524;5.080;2022-08-01T06:18:23;18.85;95.32
66343;DHT22;53144;51.524;5.080;2022-08-01T06:20:48;18.84;94.93
66343;DHT22;53144;51.524;5.080;2022-08-01T06:23:14;18.76;94.64
66343;DHT22;53144;51.524;5.080;2022-08-01T06:25:41;18.87;94.69
66343;DHT22;53144;51.524;5.080;2022-08-01T06:28:07;18.82;94.03
66343;DHT22;53144;51.524;5.080;2022-08-01T06:30:32;18.75;94.06
66343;DHT22;53144;51.524;5.080;2022-08-01T06:32:58;18.92;93.79
66343;DHT22;53144;51.524;5.080;2022-08-01T06:35:26;18.99;93.10
66343;DHT22;53144;51.524;5.080;2022-08-01T06:37:51;19.09;93.51
66343;DHT22;53144;51.524;5.080;2022-08-01T06:40:16;19.06;92.22
66343;DHT22;53144;51.524;5.080;2022-08-01T06:42:43;19.12;92.48
66343;DHT22;53144;51.524;5.080;2022-08-01T06:45:11;19.03;91.87
66343;DHT22;53144;51.524;5.080;2022-08-01T06:47:38;19.19;91.63
66343;DHT22;53144;51.524;5.080;2022-08-01T06:50:05;19.31;91.96
66343;DHT22;53144;51.524;5.080;2022-08-01T06:52:31;19.22;90.63
66343;DHT22;53144;51.524;5.080;2022-08-01T06:54:56;19.12;90.95
66343;DHT22;53144;51.524;5.080;2022-08-01T06:57:22;19.26;90.72
66343;DHT22;53144;51.524;5.080;2022-08-01T06:59:47;19.36;90.48
66343;DHT22;53144;51.524;5.080;2022-08-01T07:02:12;19.26;90.10
66343;DHT22;53144;51.524;5.080;2022-08-01T07:04:38;19.33;90.88
66343;DHT22;53144;51.524;5.080;2022-08-01T07:07:03;19.29;91.25
66343;DHT22;53144;51.524;5.080;2022-08-01T07:09:29;19.29;89.75
66343;DHT22;53144;51.524;5.080;2022-08-01T07:11:54;19.29;90.13
66343;DHT22;53144;51.524;5.080;2022-08-01T07:14:21;19.29;90.43
66343;DHT22;53144;51.524;5.080;2022-08-01T07:16:47;19.34;90.44
66343;DHT22;53144;51.524;5.080;2022-08-01T07:19:12;19.45;90.30
66343;DHT22;53144;51.524;5.080;2022-08-01T07:21:38;19.43;89.88
66343;DHT22;53144;51.524;5.080;2022-08-01T07:24:04;19.45;90.11
66343;DHT22;53144;51.524;5.080;2022-08-01T07:26:30;19.40;89.88
66343;DHT22;53144;51.524;5.080;2022-08-01T07:28:56;19.33;89.26
66343;DHT22;53144;51.524;5.080;2022-08-01T07:31:21;19.34;89.44
66343;DHT22;53144;51.524;5.080;2022-08-01T07:33:46;19.30;88.67
66343;DHT22;53144;51.524;5.080;2022-08-01T07:36:12;19.30;88.59
66343;DHT22;53144;51.524;5.080;2022-08-01T07:38:37;19.29;88.95
66343;DHT22;53144;51.524;5.080;2022-08-01T07:41:03;19.49;89.79
66343;DHT22;53144;51.524;5.080;2022-08-01T07:43:28;19.58;89.78
66343;DHT22;53144;51.524;5.080;2022-08-01T07:45:54;19.70;88.85
66343;DHT22;53144;51.524;5.080;2022-08-01T07:48:19;19.74;88.36
66343;DHT22;53144;51.524;5.080;2022-08-01T07:50:49;19.68;87.69
66343;DHT22;53144;51.524;5.080;2022-08-01T07:53:14;19.47;87.00
66343;DHT22;53144;51.524;5.080;2022-08-01T07:55:40;19.58;88.70
66343;DHT22;53144;51.524;5.080;2022-08-01T07:58:05;19.63;87.42
66343;DHT22;53144;51.524;5.080;2022-08-01T08:00:30;19.79;87.93
66343;DHT22;53144;51.524;5.080;2022-08-01T08:02:56;19.88;89.33
66343;DHT22;53144;51.524;5.080;2022-08-01T08:05:24;19.95;87.65
66343;DHT22;53144;51.524;5.080;2022-08-01T08:07:49;19.73;86.01
66343;DHT22;53144;51.524;5.080;2022-08-01T08:10:14;19.77;86.20
66343;DHT22;53144;51.524;5.080;2022-08-01T08:12:40;19.98;87.33
66343;DHT22;53144;51.524;5.080;2022-08-01T08:15:05;20.24;84.30
66343;DHT22;53144;51.524;5.080;2022-08-01T08:17:31;20.19;82.95
66343;DHT22;53144;51.524;5.080;2022-08-01T08:19:57;20.14;82.11
66343;DHT22;53144;51.524;5.080;2022-08-01T08:22:22;20.29;82.80
66343;DHT22;53144;51.524;5.080;2022-08-01T08:24:48;20.49;82.98
66343;DHT22;53144;51.524;5.080;2022-08-01T08:27:14;20.45;81.09
66343;DHT22;53144;51.524;5.080;2022-08-01T08:29:39;20.74;83.14
66343;DHT22;53144;51.524;5.080;2022-08-01T08:32:05;20.74;81.56
66343;DHT22;53144;51.524;5.080;2022-08-01T08:34:31;20.57;80.04
66343;DHT22;53144;51.524;5.080;2022-08-01T08:36:57;20.94;81.01
66343;DHT22;53144;51.524;5.080;2022-08-01T08:39:23;20.97;80.42
66343;DHT22;53144;51.524;5.080;2022-08-01T08:41:48;21.49;79.88
66343;DHT22;53144;51.524;5.080;2022-08-01T08:44:14;21.61;78.87
66343;DHT22;53144;51.524;5.080;2022-08-01T08:46:48;21.66;77.81
66343;DHT22;53144;51.524;5.080;2022-08-01T08:49:17;21.65;78.25
66343;DHT22;53144;51.524;5.080;2022-08-01T08:51:47;21.71;78.53
66343;DHT22;53144;51.524;5.080;2022-08-01T08:54:15;21.86;76.73
66343;DHT22;53144;51.524;5.080;2022-08-01T08:56:42;21.86;76.64
66343;DHT22;53144;51.524;5.080;2022-08-01T08:59:11;21.82;76.90
66343;DHT22;53144;51.524;5.080;2022-08-01T09:01:38;21.66;75.68
66343;DHT22;53144;51.524;5.080;2022-08-01T09:04:04;21.69;77.14
66343;DHT22;53144;51.524;5.080;2022-08-01T09:06:30;21.76;75.88
66343;DHT22;53144;51.524;5.080;2022-08-01T09:08:56;21.66;74.94
66343;DHT22;53144;51.524;5.080;2022-08-01T09:11:22;21.67;75.89
66343;DHT22;53144;51.524;5.080;2022-08-01T09:16:31;22.21;73.56
66343;DHT22;53144;51.524;5.080;2022-08-01T09:19:15;21.99;72.46
66343;DHT22;53144;51.524;5.080;2022-08-01T09:21:59;22.47;72.91
66343;DHT22;53144;51.524;5.080;2022-08-01T09:24:26;22.41;72.34
66343;DHT22;53144;51.524;5.080;2022-08-01T09:26:53;22.36;73.71
66343;DHT22;53144;51.524;5.080;2022-08-01T09:29:24;22.30;74.78
66343;DHT22;53144;51.524;5.080;2022-08-01T09:31:50;21.90;73.98
66343;DHT22;53144;51.524;5.080;2022-08-01T09:34:24;21.99;75.93
66343;DHT22;53144;51.524;5.080;2022-08-01T09:36:52;21.69;76.02
66343;DHT22;53144;51.524;5.080;2022-08-01T09:41:51;21.79;76.76
66343;DHT22;53144;51.524;5.080;2022-08-01T09:44:17;21.78;78.48
66343;DHT22;53144;51.524;5.080;2022-08-01T09:46:54;21.63;75.59
66343;DHT22;53144;51.524;5.080;2022-08-01T09:49:28;21.61;76.10
66343;DHT22;53144;51.524;5.080;2022-08-01T09:51:53;21.58;77.47
66343;DHT22;53144;51.524;5.080;2022-08-01T09:54:30;21.82;78.77
66343;DHT22;53144;51.524;5.080;2022-08-01T09:57:07;21.71;78.26
66343;DHT22;53144;51.524;5.080;2022-08-01T09:59:38;21.83;78.72
66343;DHT22;53144;51.524;5.080;2022-08-01T10:02:05;21.78;79.56
66343;DHT22;53144;51.524;5.080;2022-08-01T10:04:31;21.76;78.89
66343;DHT22;53144;51.524;5.080;2022-08-01T10:07:06;22.11;76.65
66343;DHT22;53144;51.524;5.080;2022-08-01T10:09:34;22.48;78.07
66343;DHT22;53144;51.524;5.080;2022-08-01T10:12:00;22.04;77.98
66343;DHT22;53144;51.524;5.080;2022-08-01T10:14:27;21.93;77.70
66343;DHT22;53144;51.524;5.080;2022-08-01T10:16:55;22.54;76.33
66343;DHT22;53144;51.524;5.080;2022-08-01T10:19:23;22.78;76.87
66343;DHT22;53144;51.524;5.080;2022-08-01T10:21:50;22.75;75.49
66343;DHT22;53144;51.524;5.080;2022-08-01T10:24:19;22.17;75.11
66343;DHT22;53144;51.524;5.080;2022-08-01T10:26:47;23.13;73.79
66343;DHT22;53144;51.524;5.080;2022-08-01T10:29:15;23.68;71.79
66343;DHT22;53144;51.524;5.080;2022-08-01T10:31:43;24.55;69.45
66343;DHT22;53144;51.524;5.080;2022-08-01T10:34:09;24.67;68.24
66343;DHT22;53144;51.524;5.080;2022-08-01T10:36:35;24.62;68.56
66343;DHT22;53144;51.524;5.080;2022-08-01T10:39:05;24.82;65.39
66343;DHT22;53144;51.524;5.080;2022-08-01T10:41:33;24.63;65.22
66343;DHT22;53144;51.524;5.080;2022-08-01T10:44:00;24.84;65.16
66343;DHT22;53144;51.524;5.080;2022-08-01T10:46:26;23.63;68.97
66343;DHT22;53144;51.524;5.080;2022-08-01T10:49:01;24.62;66.15
66343;DHT22;53144;51.524;5.080;2022-08-01T10:51:28;24.94;66.97
66343;DHT22;53144;51.524;5.080;2022-08-01T10:53:54;23.87;67.01
66343;DHT22;53144;51.524;5.080;2022-08-01T10:56:21;23.54;68.27
66343;DHT22;53144;51.524;5.080;2022-08-01T10:58:48;23.30;68.31
66343;DHT22;53144;51.524;5.080;2022-08-01T11:06:24;23.50;70.36
66343;DHT22;53144;51.524;5.080;2022-08-01T11:08:52;24.75;66.74
66343;DHT22;53144;51.524;5.080;2022-08-01T11:11:18;23.63;69.18
66343;DHT22;53144;51.524;5.080;2022-08-01T11:16:39;23.67;68.97
66343;DHT22;53144;51.524;5.080;2022-08-01T11:19:06;23.20;70.89
66343;DHT22;53144;51.524;5.080;2022-08-01T11:27:17;25.88;62.63
66343;DHT22;53144;51.524;5.080;2022-08-01T11:29:43;26.33;61.95
66343;DHT22;53144;51.524;5.080;2022-08-01T11:32:25;27.35;57.97
66343;DHT22;53144;51.524;5.080;2022-08-01T11:34:55;26.10;58.68
66343;DHT22;53144;51.524;5.080;2022-08-01T11:37:28;24.51;63.28
66343;DHT22;53144;51.524;5.080;2022-08-01T11:40:23;24.56;63.90
66343;DHT22;53144;51.524;5.080;2022-08-01T11:45:54;25.46;59.62
66343;DHT22;53144;51.524;5.080;2022-08-01T11:48:23;24.60;63.04
66343;DHT22;53144;51.524;5.080;2022-08-01T11:50:53;25.88;61.27
66343;DHT22;53144;51.524;5.080;2022-08-01T11:53:19;25.51;62.20
66343;DHT22;53144;51.524;5.080;2022-08-01T11:55:53;24.08;64.45
66343;DHT22;53144;51.524;5.080;2022-08-01T11:58:24;24.32;64.40
66343;DHT22;53144;51.524;5.080;2022-08-01T12:00:53;25.10;63.55
66343;DHT22;53144;51.524;5.080;2022-08-01T12:03:29;24.26;63.38
66343;DHT22;53144;51.524;5.080;2022-08-01T12:05:55;23.51;67.42
66343;DHT22;53144;51.524;5.080;2022-08-01T12:08:29;24.29;65.58
66343;DHT22;53144;51.524;5.080;2022-08-01T12:10:55;25.57;62.85
66343;DHT22;53144;51.524;5.080;2022-08-01T12:13:21;25.17;62.71
66343;DHT22;53144;51.524;5.080;2022-08-01T12:15:47;24.56;64.70
66343;DHT22;53144;51.524;5.080;2022-08-01T12:18:15;24.51;64.93
66343;DHT22;53144;51.524;5.080;2022-08-01T12:20:43;25.52;63.00
66343;DHT22;53144;51.524;5.080;2022-08-01T12:23:11;25.28;61.44
66343;DHT22;53144;51.524;5.080;2022-08-01T12:25:37;24.26;66.25
66343;DHT22;53144;51.524;5.080;2022-08-01T12:28:06;23.31;68.42
66343;DHT22;53144;51.524;5.080;2022-08-01T12:30:34;23.56;68.59
66343;DHT22;53144;51.524;5.080;2022-08-01T12:33:07;22.85;69.52
66343;DHT22;53144;51.524;5.080;2022-08-01T12:35:33;22.72;69.58
66343;DHT22;53144;51.524;5.080;2022-08-01T12:38:05;23.54;68.35
66343;DHT22;53144;51.524;5.080;2022-08-01T12:40:42;23.43;67.11
66343;DHT22;53144;51.524;5.080;2022-08-01T12:43:09;23.50;66.71
66343;DHT22;53144;51.524;5.080;2022-08-01T12:45:37;23.89;66.75
66343;DHT22;53144;51.524;5.080;2022-08-01T12:48:15;24.16;64.71
66343;DHT22;53144;51.524;5.080;2022-08-01T12:50:43;24.22;64.65
66343;DHT22;53144;51.524;5.080;2022-08-01T12:53:09;23.75;64.42
66343;DHT22;53144;51.524;5.080;2022-08-01T12:55:49;23.63;65.97
66343;DHT22;53144;51.524;5.080;2022-08-01T12:58:16;23.57;66.56
66343;DHT22;53144;51.524;5.080;2022-08-01T13:00:44;22.95;66.34
66343;DHT22;53144;51.524;5.080;2022-08-01T13:03:13;22.76;64.98
66343;DHT22;53144;51.524;5.080;2022-08-01T13:08:32;25.72;59.27
66343;DHT22;53144;51.524;5.080;2022-08-01T13:11:05;25.81;58.49
66343;DHT22;53144;51.524;5.080;2022-08-01T13:13:40;26.44;56.12
66343;DHT22;53144;51.524;5.080;2022-08-01T13:16:07;26.30;54.92
66343;DHT22;53144;51.524;5.080;2022-08-01T13:18:34;26.16;56.09
66343;DHT22;53144;51.524;5.080;2022-08-01T13:21:16;26.43;56.31
66343;DHT22;53144;51.524;5.080;2022-08-01T13:29:35;26.84;53.23
66343;DHT22;53144;51.524;5.080;2022-08-01T13:32:17;25.39;58.68
66343;DHT22;53144;51.524;5.080;2022-08-01T13:34:42;25.34;56.43
66343;DHT22;53144;51.524;5.080;2022-08-01T13:37:08;24.51;60.93
66343;DHT22;53144;51.524;5.080;2022-08-01T13:39:34;23.75;61.07
66343;DHT22;53144;51.524;5.080;2022-08-01T13:42:09;23.82;64.20
66343;DHT22;53144;51.524;5.080;2022-08-01T13:44:34;24.14;62.38
66343;DHT22;53144;51.524;5.080;2022-08-01T13:47:00;24.24;61.02
66343;DHT22;53144;51.524;5.080;2022-08-01T13:49:26;24.51;59.57
66343;DHT22;53144;51.524;5.080;2022-08-01T13:51:51;25.18;57.82
66343;DHT22;53144;51.524;5.080;2022-08-01T13:54:17;25.96;55.82
66343;DHT22;53144;51.524;5.080;2022-08-01T13:56:42;24.73;57.96
66343;DHT22;53144;51.524;5.080;2022-08-01T13:59:08;24.88;58.65
66343;DHT22;53144;51.524;5.080;2022-08-01T14:01:34;25.39;58.11
66343;DHT22;53144;51.524;5.080;2022-08-01T14:04:00;25.23;58.35
66343;DHT22;53144;51.524;5.080;2022-08-01T14:06:25;24.86;57.39
66343;DHT22;53144;51.524;5.080;2022-08-01T14:08:50;24.76;57.89
66343;DHT22;53144;51.524;5.080;2022-08-01T14:11:16;24.79;59.56
66343;DHT22;53144;51.524;5.080;2022-08-01T14:13:42;23.81;59.60
66343;DHT22;53144;51.524;5.080;2022-08-01T14:16:08;23.70;59.84
66343;DHT22;53144;51.524;5.080;2022-08-01T14:18:33;24.28;58.09
66343;DHT22;53144;51.524;5.080;2022-08-01T14:20:59;24.14;60.01
66343;DHT22;53144;51.524;5.080;2022-08-01T14:23:25;23.95;59.51
66343;DHT22;53144;51.524;5.080;2022-08-01T14:25:50;24.26;61.15
66343;DHT22;53144;51.524;5.080;2022-08-01T14:28:16;23.97;60.74
66343;DHT22;53144;51.524;5.080;2022-08-01T14:30:41;23.46;61.49
66343;DHT22;53144;51.524;5.080;2022-08-01T14:33:08;23.61;63.50
66343;DHT22;53144;51.524;5.080;2022-08-01T14:35:34;23.49;63.96
66343;DHT22;53144;51.524;5.080;2022-08-01T14:37:59;23.64;61.42
66343;DHT22;53144;51.524;5.080;2022-08-01T14:40:25;23.36;59.69
66343;DHT22;53144;51.524;5.080;2022-08-01T14:42:50;23.34;61.17
66343;DHT22;53144;51.524;5.080;2022-08-01T14:45:16;23.60;62.16
66343;DHT22;53144;51.524;5.080;2022-08-01T14:47:42;23.54;60.67
66343;DHT22;53144;51.524;5.080;2022-08-01T14:50:10;23.47;60.15
66343;DHT22;53144;51.524;5.080;2022-08-01T14:52:37;23.58;61.08
66343;DHT22;53144;51.524;5.080;2022-08-01T14:55:03;23.50;59.24
66343;DHT22;53144;51.524;5.080;2022-08-01T14:57:30;23.39;61.96
66343;DHT22;53144;51.524;5.080;2022-08-01T14:59:55;23.68;60.87
66343;DHT22;53144;51.524;5.080;2022-08-01T15:02:21;23.82;59.99
66343;DHT22;53144;51.524;5.080;2022-08-01T15:04:47;23.68;60.71
66343;DHT22;53144;51.524;5.080;2022-08-01T15:07:13;23.29;62.01
66343;DHT22;53144;51.524;5.080;2022-08-01T15:09:39;23.39;60.07
66343;DHT22;53144;51.524;5.080;2022-08-01T15:12:06;23.66;59.23
66343;DHT22;53144;51.524;5.080;2022-08-01T15:14:32;23.79;58.39
66343;DHT22;53144;51.524;5.080;2022-08-01T15:17:22;23.63;60.81
66343;DHT22;53144;51.524;5.080;2022-08-01T15:19:50;23.31;57.40
66343;DHT22;53144;51.524;5.080;2022-08-01T15:22:17;23.13;57.85
66343;DHT22;53144;51.524;5.080;2022-08-01T15:24:43;23.27;59.47
66343;DHT22;53144;51.524;5.080;2022-08-01T15:27:09;23.13;59.27
66343;DHT22;53144;51.524;5.080;2022-08-01T15:29:35;23.13;58.67
66343;DHT22;53144;51.524;5.080;2022-08-01T15:32:03;23.20;57.47
66343;DHT22;53144;51.524;5.080;2022-08-01T15:34:29;23.46;57.61
66343;DHT22;53144;51.524;5.080;2022-08-01T15:36:55;23.29;58.35
66343;DHT22;53144;51.524;5.080;2022-08-01T15:39:20;23.27;58.00
66343;DHT22;53144;51.524;5.080;2022-08-01T15:41:46;23.43;58.08
66343;DHT22;53144;51.524;5.080;2022-08-01T15:44:11;23.43;59.62
66343;DHT22;53144;51.524;5.080;2022-08-01T15:46:36;23.45;59.21
66343;DHT22;53144;51.524;5.080;2022-08-01T15:49:03;23.49;57.84
66343;DHT22;53144;51.524;5.080;2022-08-01T15:51:29;23.58;58.50
66343;DHT22;53144;51.524;5.080;2022-08-01T15:53:55;23.49;56.49
66343;DHT22;53144;51.524;5.080;2022-08-01T15:56:20;23.64;56.19
66343;DHT22;53144;51.524;5.080;2022-08-01T15:58:46;23.51;56.24
66343;DHT22;53144;51.524;5.080;2022-08-01T16:01:11;23.33;55.66
66343;DHT22;53144;51.524;5.080;2022-08-01T16:03:36;23.26;57.51
66343;DHT22;53144;51.524;5.080;2022-08-01T16:06:02;23.27;57.68
66343;DHT22;53144;51.524;5.080;2022-08-01T16:08:27;23.37;57.92
66343;DHT22;53144;51.524;5.080;2022-08-01T16:10:52;23.45;55.44
66343;DHT22;53144;51.524;5.080;2022-08-01T16:13:18;23.51;55.14